createdAt,value
2024-02-24T00:01:06.825Z,0.40
2024-02-24T00:03:33.921Z,0.40
2024-02-24T00:06:00.928Z,0.40
2024-02-24T00:08:28.002Z,0.30
2024-02-24T00:10:55.793Z,0.20
2024-02-24T00:13:22.769Z,0.10
2024-02-24T00:15:49.668Z,0.10
2024-02-24T00:18:16.616Z,0.20
2024-02-24T00:20:43.578Z,0.10
2024-02-24T00:23:10.580Z,0.20
2024-02-24T00:25:37.744Z,0.00
2024-02-24T00:28:05.036Z,0.10
2024-02-24T00:30:32.272Z,0.00
2024-02-24T00:32:59.223Z,0.10
2024-02-24T00:35:29.612Z,0.10
2024-02-24T00:37:56.925Z,0.10
2024-02-24T00:40:23.915Z,0.00
2024-02-24T00:42:50.824Z,0.00
2024-02-24T00:45:17.794Z,0.00
2024-02-24T00:47:44.772Z,0.10
2024-02-24T00:50:11.842Z,0.00
2024-02-24T00:52:38.829Z,0.00
2024-02-24T00:55:05.904Z,0.00
2024-02-24T00:57:32.857Z,0.00
2024-02-24T00:59:59.796Z,0.00
2024-02-24T01:02:26.877Z,0.00
2024-02-24T01:04:53.859Z,0.00
2024-02-24T01:07:20.846Z,0.10
2024-02-24T01:09:47.879Z,0.00
2024-02-24T01:12:14.817Z,0.00
2024-02-24T01:14:41.792Z,0.00
2024-02-24T01:17:09.177Z,0.00
2024-02-24T01:19:36.062Z,0.00
2024-02-24T01:22:03.109Z,0.00
2024-02-24T01:24:30.084Z,0.00
2024-02-24T01:26:56.963Z,0.00
2024-02-24T01:29:24.010Z,0.10
2024-02-24T01:31:51.021Z,0.00
2024-02-24T01:34:18.377Z,0.00
2024-02-24T01:36:45.354Z,0.00
2024-02-24T01:39:12.368Z,0.00
2024-02-24T01:41:39.284Z,0.00
2024-02-24T01:44:06.394Z,0.00
2024-02-24T01:46:33.578Z,0.00
2024-02-24T01:49:00.717Z,0.10
2024-02-24T01:51:27.888Z,0.00
2024-02-24T01:53:55.560Z,0.00
2024-02-24T01:56:23.356Z,0.00
2024-02-24T01:58:50.354Z,0.00
2024-02-24T02:01:18.367Z,0.00
2024-02-24T02:03:45.335Z,0.00
2024-02-24T02:06:12.572Z,0.00
2024-02-24T02:08:39.613Z,0.00
2024-02-24T02:11:10.185Z,0.00
2024-02-24T02:13:37.562Z,0.00
2024-02-24T02:16:04.834Z,0.10
2024-02-24T02:18:33.763Z,0.00
2024-02-24T02:21:03.280Z,0.00
2024-02-24T02:23:30.296Z,0.10
2024-02-24T02:25:57.857Z,0.00
2024-02-24T02:28:25.129Z,0.00
2024-02-24T02:30:52.489Z,0.00
2024-02-24T02:33:19.676Z,0.00
2024-02-24T02:35:46.976Z,0.00
2024-02-24T02:38:14.129Z,0.00
2024-02-24T02:40:41.049Z,0.00
2024-02-24T02:43:07.994Z,0.00
2024-02-24T02:45:35.006Z,0.00
2024-02-24T02:48:02.085Z,0.00
2024-02-24T02:50:29.227Z,0.00
2024-02-24T02:52:56.616Z,0.00
2024-02-24T02:55:23.550Z,0.10
2024-02-24T02:57:50.760Z,0.10
2024-02-24T03:00:17.883Z,0.20
2024-02-24T03:02:44.984Z,0.10
2024-02-24T03:05:12.055Z,0.10
2024-02-24T03:07:54.393Z,0.10
2024-02-24T03:10:21.703Z,0.10
2024-02-24T03:12:48.746Z,0.10
2024-02-24T03:15:15.857Z,0.00
2024-02-24T03:17:42.935Z,0.10
2024-02-24T03:20:10.402Z,0.10
2024-02-24T03:22:39.668Z,0.20
2024-02-24T03:25:07.008Z,0.10
2024-02-24T03:27:34.030Z,0.20
2024-02-24T03:30:01.546Z,0.10
2024-02-24T03:32:28.735Z,0.20
2024-02-24T03:34:55.801Z,0.00
2024-02-24T03:37:22.840Z,0.20
2024-02-24T03:39:49.834Z,0.10
2024-02-24T03:42:16.906Z,0.00
2024-02-24T03:44:43.980Z,0.00
2024-02-24T03:47:11.058Z,0.10
2024-02-24T03:49:38.338Z,0.00
2024-02-24T03:52:05.649Z,0.00
2024-02-24T03:54:32.706Z,0.00
2024-02-24T03:56:59.833Z,0.00
2024-02-24T03:59:27.100Z,0.10
2024-02-24T04:01:54.125Z,0.10
2024-02-24T04:04:21.202Z,0.10
2024-02-24T04:06:48.374Z,0.10
2024-02-24T04:09:15.474Z,0.00
2024-02-24T04:11:42.654Z,0.10
2024-02-24T04:14:09.856Z,0.10
2024-02-24T04:16:36.877Z,0.30
2024-02-24T04:19:04.037Z,0.00
2024-02-24T04:21:31.130Z,0.10
2024-02-24T04:23:58.496Z,0.10
2024-02-24T04:26:25.616Z,0.00
2024-02-24T04:28:52.619Z,0.00
2024-02-24T04:31:19.726Z,0.10
2024-02-24T04:33:46.852Z,0.00
2024-02-24T04:36:13.997Z,0.10
2024-02-24T04:38:41.057Z,0.10
2024-02-24T04:41:08.141Z,0.10
2024-02-24T04:43:37.164Z,0.10
2024-02-24T04:46:05.402Z,0.10
2024-02-24T04:48:32.648Z,0.10
2024-02-24T04:51:02.881Z,0.10
2024-02-24T04:53:30.781Z,0.10
2024-02-24T04:55:57.909Z,0.10
2024-02-24T04:58:26.317Z,0.10
2024-02-24T05:00:53.676Z,0.10
2024-02-24T05:03:20.904Z,0.10
2024-02-24T05:05:48.131Z,0.10
2024-02-24T05:08:15.267Z,0.10
2024-02-24T05:10:42.362Z,0.10
2024-02-24T05:13:09.397Z,0.10
2024-02-24T05:15:36.386Z,0.10
2024-02-24T05:18:03.697Z,6.90
2024-02-24T05:20:32.398Z,8.10
2024-02-24T05:22:59.500Z,7.10
2024-02-24T05:25:26.511Z,10.60
2024-02-24T05:27:54.688Z,7.60
2024-02-24T05:30:21.714Z,5.40
2024-02-24T05:32:48.902Z,2.60
2024-02-24T05:35:16.321Z,1.20
2024-02-24T05:37:43.458Z,0.50
2024-02-24T05:40:10.706Z,0.70
2024-02-24T05:42:37.913Z,0.20
2024-02-24T05:45:05.145Z,0.20
2024-02-24T05:47:32.257Z,0.30
2024-02-24T05:49:59.441Z,0.20
2024-02-24T05:52:26.582Z,0.20
2024-02-24T05:54:53.564Z,0.30
2024-02-24T05:57:20.605Z,0.10
2024-02-24T05:59:47.734Z,0.10
2024-02-24T06:02:14.835Z,0.10
2024-02-24T06:04:41.932Z,0.20
2024-02-24T06:07:08.975Z,0.10
2024-02-24T06:09:35.984Z,0.20
2024-02-24T06:12:03.084Z,0.50
2024-02-24T06:14:30.276Z,0.60
2024-02-24T06:16:57.331Z,0.90
2024-02-24T06:19:24.403Z,0.80
2024-02-24T06:21:51.532Z,0.50
2024-02-24T06:24:18.624Z,0.40
2024-02-24T06:26:45.741Z,0.10
2024-02-24T06:29:17.182Z,0.30
2024-02-24T06:31:44.255Z,0.20
2024-02-24T06:34:11.318Z,0.20
2024-02-24T06:36:38.768Z,0.00
2024-02-24T06:39:05.782Z,0.30
2024-02-24T06:41:32.961Z,0.10
2024-02-24T06:44:00.028Z,0.10
2024-02-24T06:46:27.081Z,0.20
2024-02-24T06:48:54.257Z,0.50
2024-02-24T06:51:22.098Z,0.50
2024-02-24T06:53:49.406Z,2.20
2024-02-24T06:56:20.658Z,1.60
2024-02-24T06:58:47.763Z,0.90
2024-02-24T07:01:21.567Z,0.80
2024-02-24T07:03:48.621Z,0.70
2024-02-24T07:06:17.497Z,0.60
2024-02-24T07:08:45.121Z,0.50
2024-02-24T07:11:12.242Z,0.40
2024-02-24T07:13:39.778Z,0.90
2024-02-24T07:16:07.385Z,1.70
2024-02-24T07:18:34.574Z,0.80
2024-02-24T07:21:03.972Z,0.80
2024-02-24T07:23:32.001Z,1.90
2024-02-24T07:26:02.415Z,2.50
2024-02-24T07:28:29.837Z,6.30
2024-02-24T07:30:56.891Z,6.20
2024-02-24T07:33:24.125Z,6.70
2024-02-24T07:35:51.259Z,4.80
2024-02-24T07:38:18.345Z,2.10
2024-02-24T07:40:45.390Z,2.30
2024-02-24T07:43:12.469Z,1.80
2024-02-24T07:45:39.578Z,1.20
2024-02-24T07:48:07.968Z,1.70
2024-02-24T07:50:35.151Z,1.40
2024-02-24T07:53:02.384Z,1.70
2024-02-24T07:55:29.387Z,1.60
2024-02-24T07:57:56.503Z,1.90
2024-02-24T08:00:23.609Z,1.80
2024-02-24T08:02:50.702Z,2.60
2024-02-24T08:05:19.640Z,4.10
2024-02-24T08:07:46.707Z,2.40
2024-02-24T08:10:13.798Z,2.40
2024-02-24T08:12:40.907Z,2.60
2024-02-24T08:15:08.308Z,8.50
2024-02-24T08:17:37.220Z,11.30
2024-02-24T08:20:07.347Z,15.90
2024-02-24T08:22:34.431Z,11.90
2024-02-24T08:25:01.584Z,41.90
2024-02-24T08:27:29.005Z,23.90
2024-02-24T08:29:56.877Z,12.30
2024-02-24T08:32:28.558Z,5.40
2024-02-24T08:34:56.890Z,2.60
2024-02-24T08:37:27.222Z,5.00
2024-02-24T08:39:54.745Z,5.80
2024-02-24T08:42:33.030Z,5.90
2024-02-24T08:45:01.520Z,2.30
2024-02-24T08:47:32.179Z,2.30
2024-02-24T08:50:00.054Z,2.20
2024-02-24T08:52:38.038Z,11.00
2024-02-24T08:55:10.340Z,7.40
2024-02-24T08:57:37.346Z,5.00
2024-02-24T09:00:04.548Z,3.90
2024-02-24T09:02:31.589Z,12.60
2024-02-24T09:05:00.053Z,12.00
2024-02-24T09:07:27.370Z,40.90
2024-02-24T09:09:54.521Z,8.90
2024-02-24T09:12:21.543Z,2.70
2024-02-24T09:14:48.716Z,3.00
2024-02-24T09:17:15.850Z,1.70
2024-02-24T09:19:46.145Z,0.70
2024-02-24T09:22:13.398Z,0.60
2024-02-24T09:24:40.548Z,0.90
2024-02-24T09:27:07.572Z,0.70
2024-02-24T09:29:34.651Z,0.40
2024-02-24T09:32:02.182Z,0.40
2024-02-24T09:34:29.325Z,0.80
2024-02-24T09:37:02.782Z,0.30
2024-02-24T09:39:29.821Z,0.50
2024-02-24T09:42:01.266Z,0.70
2024-02-24T09:44:31.400Z,0.80
2024-02-24T09:47:01.692Z,0.70
2024-02-24T09:49:30.755Z,0.30
2024-02-24T09:51:58.369Z,0.30
2024-02-24T09:54:25.716Z,0.30
2024-02-24T09:56:53.587Z,0.60
2024-02-24T09:59:21.456Z,0.90
2024-02-24T10:01:51.800Z,0.70
2024-02-24T10:04:22.066Z,0.60
2024-02-24T10:06:49.086Z,0.60
2024-02-24T10:09:16.086Z,0.30
2024-02-24T10:11:43.275Z,0.30
2024-02-24T10:14:10.590Z,0.70
2024-02-24T10:16:38.004Z,11.30
2024-02-24T10:19:05.824Z,3.50
2024-02-24T10:21:33.530Z,2.00
2024-02-24T10:24:01.222Z,1.00
2024-02-24T10:26:29.001Z,0.80
2024-02-24T10:28:56.300Z,1.00
2024-02-24T10:31:25.269Z,1.50
2024-02-24T10:33:54.111Z,1.00
2024-02-24T10:36:21.840Z,0.50
2024-02-24T10:38:55.997Z,0.60
2024-02-24T10:41:26.672Z,2.00
2024-02-24T10:44:06.138Z,1.20
2024-02-24T10:46:44.309Z,0.60
2024-02-24T10:49:11.947Z,0.50
2024-02-24T10:51:39.827Z,0.70
2024-02-24T10:54:13.638Z,2.10
2024-02-24T10:56:41.077Z,2.20
2024-02-24T10:59:12.155Z,2.00
2024-02-24T11:02:02.566Z,1.70
2024-02-24T11:04:29.953Z,2.30
2024-02-24T11:06:57.894Z,2.10
2024-02-24T11:09:31.050Z,2.00
2024-02-24T11:12:11.146Z,1.30
2024-02-24T11:14:51.516Z,2.20
2024-02-24T11:17:37.507Z,4.00
2024-02-24T11:20:05.056Z,3.30
2024-02-24T11:22:32.187Z,2.60
2024-02-24T11:25:02.866Z,4.50
2024-02-24T11:27:31.749Z,4.30
2024-02-24T11:29:59.846Z,3.00
2024-02-24T11:32:27.192Z,1.50
2024-02-24T11:34:57.054Z,1.20
2024-02-24T11:37:24.308Z,4.40
2024-02-24T11:39:51.514Z,4.70
2024-02-24T11:42:19.098Z,7.70
2024-02-24T11:44:49.921Z,8.60
2024-02-24T11:47:20.220Z,2.60
2024-02-24T11:49:49.068Z,2.00
2024-02-24T11:52:17.386Z,1.20
2024-02-24T11:54:45.162Z,1.50
2024-02-24T11:57:13.213Z,1.20
2024-02-24T11:59:41.718Z,1.30
2024-02-24T12:02:08.882Z,1.70
2024-02-24T12:04:36.205Z,2.40
2024-02-24T12:07:05.821Z,1.50
2024-02-24T12:09:33.464Z,3.20
2024-02-24T12:12:00.652Z,2.30
2024-02-24T12:14:29.527Z,1.40
2024-02-24T12:16:57.979Z,0.70
2024-02-24T12:19:26.537Z,4.70
2024-02-24T12:21:54.920Z,1.30
2024-02-24T12:24:28.727Z,3.10
2024-02-24T12:26:59.909Z,3.30
2024-02-24T12:29:28.386Z,0.80
2024-02-24T12:31:55.525Z,2.10
2024-02-24T12:34:22.690Z,0.40
2024-02-24T12:36:53.965Z,0.90
2024-02-24T12:39:21.313Z,0.60
2024-02-24T12:41:48.504Z,1.70
2024-02-24T12:44:15.571Z,1.00
2024-02-24T12:46:42.707Z,1.30
2024-02-24T12:49:10.118Z,1.30
2024-02-24T12:51:37.333Z,2.10
2024-02-24T12:54:05.948Z,2.10
2024-02-24T12:56:33.295Z,0.90
2024-02-24T12:59:03.328Z,0.70
2024-02-24T13:01:30.354Z,0.90
2024-02-24T13:03:57.423Z,0.70
2024-02-24T13:06:24.647Z,0.90
2024-02-24T13:08:51.866Z,1.10
2024-02-24T13:11:19.101Z,0.60
2024-02-24T13:13:46.224Z,0.40
2024-02-24T13:16:13.255Z,0.40
2024-02-24T13:18:40.408Z,0.50
2024-02-24T13:21:07.556Z,0.40
2024-02-24T13:23:34.712Z,0.30
2024-02-24T13:26:01.695Z,0.40
2024-02-24T13:28:28.697Z,0.30
2024-02-24T13:30:55.997Z,0.50
2024-02-24T13:33:23.099Z,0.30
2024-02-24T13:35:50.505Z,0.40
2024-02-24T13:38:20.492Z,0.40
2024-02-24T13:40:48.152Z,0.40
2024-02-24T13:43:15.266Z,0.30
2024-02-24T13:45:42.875Z,0.40
2024-02-24T13:48:10.123Z,0.30
2024-02-24T13:50:37.227Z,0.30
2024-02-24T13:53:04.334Z,0.30
2024-02-24T13:55:31.310Z,0.40
2024-02-24T13:57:58.354Z,0.60
2024-02-24T14:00:25.406Z,0.30
2024-02-24T14:02:52.652Z,0.30
2024-02-24T14:05:19.747Z,0.30
2024-02-24T14:07:46.909Z,0.20
2024-02-24T14:10:13.904Z,0.40
2024-02-24T14:12:41.201Z,0.40
2024-02-24T14:15:08.772Z,0.70
2024-02-24T14:17:35.906Z,0.70
2024-02-24T14:20:08.508Z,0.40
2024-02-24T14:22:42.581Z,0.50
2024-02-24T14:25:09.654Z,0.30
2024-02-24T14:27:37.361Z,0.30
2024-02-24T14:30:04.513Z,0.30
2024-02-24T14:32:31.721Z,0.20
2024-02-24T14:34:58.839Z,0.20
2024-02-24T14:37:25.930Z,0.30
2024-02-24T14:39:52.961Z,0.30
2024-02-24T14:42:20.091Z,0.40
2024-02-24T14:44:47.158Z,0.30
2024-02-24T14:47:14.198Z,0.30
2024-02-24T14:49:42.004Z,0.50
2024-02-24T14:52:10.705Z,0.80
2024-02-24T14:54:39.657Z,0.40
2024-02-24T14:57:07.731Z,0.60
2024-02-24T14:59:34.859Z,0.30
2024-02-24T15:02:01.844Z,0.30
2024-02-24T15:04:29.010Z,0.70
2024-02-24T15:06:56.417Z,0.20
2024-02-24T15:09:23.460Z,0.40
2024-02-24T15:11:50.812Z,0.30
2024-02-24T15:14:18.251Z,0.30
2024-02-24T15:16:49.423Z,0.20
2024-02-24T15:19:17.046Z,0.30
2024-02-24T15:21:44.321Z,0.20
2024-02-24T15:24:11.903Z,0.20
2024-02-24T15:26:39.207Z,0.30
2024-02-24T15:29:06.362Z,0.30
2024-02-24T15:31:33.345Z,0.20
2024-02-24T15:34:02.142Z,0.20
2024-02-24T15:36:29.413Z,0.30
2024-02-24T15:38:57.762Z,0.30
2024-02-24T15:41:25.068Z,0.50
2024-02-24T15:43:52.680Z,0.30
2024-02-24T15:46:19.733Z,0.60
2024-02-24T15:48:47.097Z,0.30
2024-02-24T15:51:14.484Z,0.40
2024-02-24T15:53:42.069Z,0.30
2024-02-24T15:56:14.070Z,0.20
2024-02-24T15:58:43.716Z,0.20
2024-02-24T16:01:11.131Z,0.30
2024-02-24T16:03:38.162Z,0.50
2024-02-24T16:06:05.599Z,0.30
2024-02-24T16:08:32.794Z,0.20
2024-02-24T16:10:59.844Z,0.30
2024-02-24T16:13:27.300Z,0.30
2024-02-24T16:15:55.111Z,1.00
2024-02-24T16:18:22.247Z,0.80
2024-02-24T16:20:49.441Z,1.20
2024-02-24T16:23:17.346Z,1.30
2024-02-24T16:25:44.593Z,1.30
2024-02-24T16:28:11.923Z,1.30
2024-02-24T16:30:38.949Z,1.10
2024-02-24T16:33:06.187Z,1.00
2024-02-24T16:35:33.401Z,0.90
2024-02-24T16:38:02.407Z,1.40
2024-02-24T16:40:29.767Z,2.00
2024-02-24T16:42:56.786Z,2.00
2024-02-24T16:45:23.987Z,1.30
2024-02-24T16:47:51.155Z,1.50
2024-02-24T16:50:21.405Z,0.90
2024-02-24T16:52:48.970Z,1.10
2024-02-24T16:55:16.005Z,1.00
2024-02-24T16:57:43.055Z,0.90
2024-02-24T17:00:10.833Z,0.80
2024-02-24T17:02:37.899Z,0.50
2024-02-24T17:05:05.249Z,0.60
2024-02-24T17:07:32.446Z,0.80
2024-02-24T17:09:59.453Z,3.70
2024-02-24T17:12:26.838Z,11.10
2024-02-24T17:14:53.995Z,7.70
2024-02-24T17:17:28.939Z,8.50
2024-02-24T17:20:01.811Z,9.40
2024-02-24T17:22:42.600Z,6.40
2024-02-24T17:25:09.670Z,5.10
2024-02-24T17:27:38.050Z,4.10
2024-02-24T17:30:05.551Z,3.60
2024-02-24T17:32:33.429Z,2.90
2024-02-24T17:35:00.551Z,3.00
2024-02-24T17:37:27.603Z,3.00
2024-02-24T17:39:55.354Z,3.00
2024-02-24T17:42:23.214Z,2.70
2024-02-24T17:44:50.615Z,2.80
2024-02-24T17:47:17.897Z,2.70
2024-02-24T17:49:44.998Z,2.20
2024-02-24T17:52:12.183Z,2.20
2024-02-24T17:54:39.303Z,2.80
2024-02-24T17:57:06.419Z,4.00
2024-02-24T17:59:34.939Z,4.10
2024-02-24T18:02:13.013Z,3.60
2024-02-24T18:04:44.912Z,3.50
2024-02-24T18:07:12.082Z,2.90
2024-02-24T18:09:40.350Z,2.40
2024-02-24T18:12:08.058Z,2.90
2024-02-24T18:14:36.372Z,3.30
2024-02-24T18:17:04.353Z,3.50
2024-02-24T18:19:31.725Z,4.20
2024-02-24T18:21:59.219Z,5.40
2024-02-24T18:24:26.383Z,6.20
2024-02-24T18:26:53.547Z,6.20
2024-02-24T18:29:20.880Z,6.30
2024-02-24T18:31:48.238Z,6.20
2024-02-24T18:34:17.396Z,6.80
2024-02-24T18:36:44.620Z,5.40
2024-02-24T18:39:12.588Z,7.00
2024-02-24T18:41:39.976Z,6.00
2024-02-24T18:44:09.351Z,6.60
2024-02-24T18:46:37.605Z,4.80
2024-02-24T18:49:05.127Z,4.60
2024-02-24T18:51:32.821Z,4.70
2024-02-24T18:54:03.079Z,4.80
2024-02-24T18:56:39.264Z,5.50
2024-02-24T18:59:07.120Z,5.30
2024-02-24T19:01:34.604Z,5.50
2024-02-24T19:04:02.328Z,5.10
2024-02-24T19:06:30.982Z,4.60
2024-02-24T19:08:59.371Z,5.00
2024-02-24T19:11:27.221Z,6.50
2024-02-24T19:13:54.693Z,6.60
2024-02-24T19:16:23.161Z,5.90
2024-02-24T19:18:51.873Z,5.30
2024-02-24T19:21:19.809Z,5.50
2024-02-24T19:23:48.823Z,5.50
2024-02-24T19:26:17.752Z,5.40
2024-02-24T19:28:45.492Z,5.00
2024-02-24T19:31:13.295Z,5.50
2024-02-24T19:33:41.434Z,4.60
2024-02-24T19:36:09.518Z,4.70
2024-02-24T19:38:37.416Z,5.40
2024-02-24T19:41:05.241Z,4.90
2024-02-24T19:43:33.371Z,5.20
2024-02-24T19:46:01.252Z,5.50
2024-02-24T19:48:29.394Z,4.60
2024-02-24T19:50:59.048Z,4.10
2024-02-24T19:53:27.296Z,4.20
2024-02-24T19:55:54.883Z,4.50
2024-02-24T19:58:31.595Z,5.60
2024-02-24T20:01:02.516Z,4.70
2024-02-24T20:03:30.209Z,4.60
2024-02-24T20:05:58.013Z,5.10
2024-02-24T20:08:25.852Z,4.50
2024-02-24T20:10:53.649Z,4.40
2024-02-24T20:13:21.082Z,4.40
2024-02-24T20:15:48.618Z,5.50
2024-02-24T20:18:16.364Z,16.00
2024-02-24T20:20:44.028Z,13.50
2024-02-24T20:23:13.133Z,16.50
2024-02-24T20:25:40.744Z,11.60
2024-02-24T20:28:08.260Z,8.00
2024-02-24T20:30:36.995Z,6.40
2024-02-24T20:33:04.723Z,5.40
2024-02-24T20:35:32.270Z,4.80
2024-02-24T20:37:59.513Z,4.90
2024-02-24T20:40:27.231Z,7.90
2024-02-24T20:42:54.812Z,7.20
2024-02-24T20:45:22.227Z,7.50
2024-02-24T20:47:49.505Z,6.70
2024-02-24T20:50:17.054Z,6.60
2024-02-24T20:52:44.410Z,6.10
2024-02-24T20:55:11.497Z,5.40
2024-02-24T20:57:38.669Z,5.00
2024-02-24T21:00:06.462Z,5.70
2024-02-24T21:02:33.957Z,6.90
2024-02-24T21:05:01.173Z,7.10
2024-02-24T21:07:28.261Z,7.40
2024-02-24T21:09:55.365Z,6.50
2024-02-24T21:12:22.580Z,5.10
2024-02-24T21:14:49.794Z,4.00
2024-02-24T21:17:16.959Z,3.70
2024-02-24T21:19:44.350Z,4.20
2024-02-24T21:22:11.423Z,4.80
2024-02-24T21:24:38.440Z,4.40
2024-02-24T21:27:05.734Z,4.70
2024-02-24T21:29:32.892Z,3.80
2024-02-24T21:31:59.802Z,3.80
2024-02-24T21:34:27.017Z,4.00
2024-02-24T21:36:54.028Z,3.80
2024-02-24T21:39:21.084Z,4.00
2024-02-24T21:41:48.040Z,4.30
2024-02-24T21:44:15.016Z,4.60
2024-02-24T21:46:42.014Z,3.90
2024-02-24T21:49:09.100Z,4.30
2024-02-24T21:51:36.648Z,4.00
2024-02-24T21:54:05.243Z,4.60
2024-02-24T21:56:35.402Z,3.50
2024-02-24T21:59:02.538Z,5.00
2024-02-24T22:01:29.538Z,4.70
2024-02-24T22:03:57.018Z,4.20
2024-02-24T22:06:24.384Z,4.30
2024-02-24T22:08:51.525Z,4.70
2024-02-24T22:11:19.157Z,6.00
2024-02-24T22:13:46.381Z,6.40
2024-02-24T22:16:14.554Z,7.30
2024-02-24T22:18:41.807Z,7.70
2024-02-24T22:21:09.509Z,6.50
2024-02-24T22:23:38.789Z,6.60
2024-02-24T22:26:06.426Z,6.90
2024-02-24T22:28:33.467Z,6.00
2024-02-24T22:31:00.517Z,6.00
2024-02-24T22:33:27.677Z,5.80
2024-02-24T22:35:55.135Z,5.60
2024-02-24T22:38:22.367Z,4.70
2024-02-24T22:40:49.459Z,5.80
2024-02-24T22:43:16.599Z,5.60
2024-02-24T22:45:43.902Z,5.90
2024-02-24T22:48:14.053Z,6.10
2024-02-24T22:50:49.350Z,6.50
2024-02-24T22:53:16.362Z,5.80
2024-02-24T22:55:43.640Z,5.30
2024-02-24T22:58:10.688Z,5.60
2024-02-24T23:00:37.711Z,5.30
2024-02-24T23:03:06.409Z,5.50
2024-02-24T23:05:33.569Z,5.00
2024-02-24T23:08:00.565Z,4.90
2024-02-24T23:10:28.767Z,5.70
2024-02-24T23:12:55.837Z,6.20
2024-02-24T23:15:22.931Z,5.40
2024-02-24T23:17:50.271Z,5.70
2024-02-24T23:20:17.495Z,6.40
2024-02-24T23:22:44.554Z,5.60
2024-02-24T23:25:11.797Z,7.10
2024-02-24T23:27:38.901Z,6.20
2024-02-24T23:30:06.340Z,6.30
2024-02-24T23:32:33.498Z,6.30
2024-02-24T23:35:00.569Z,5.70
2024-02-24T23:37:27.673Z,5.40
2024-02-24T23:39:54.661Z,5.60
2024-02-24T23:42:21.695Z,6.50
2024-02-24T23:44:48.764Z,8.80
2024-02-24T23:47:15.851Z,8.50
2024-02-24T23:49:43.001Z,7.70
2024-02-24T23:52:10.096Z,8.00
2024-02-24T23:54:37.242Z,8.90
2024-02-24T23:57:04.459Z,9.60
2024-02-24T23:59:31.638Z,9.70
